Time;durP1;ratioP1;P1;durP2;ratioP2;P2;SDS_P1;SDS_P2;PMS_P1;PMS_P2;Temp;Humidity;BMP_temperature;BMP_pressure;BME280_temperature;BME280_humidity;BME280_pressure;Samples;Min_cycle;Max_cycle;Signal;HPM_P1;HPM_P2
2022/02/25 00:00:08;;;;;;;13.48;4.60;;;;;;;2.18;83.96;101256.38;5093095;28;20040;-64
2022/02/25 00:02:38;;;;;;;9.60;4.55;;;;;;;2.21;82.77;101249.19;5093149;28;20055;-65
2022/02/25 00:05:05;;;;;;;9.63;3.65;;;;;;;2.16;83.19;101253.84;5091739;28;20119;-64
2022/02/25 00:07:32;;;;;;;10.93;4.22;;;;;;;2.21;82.41;101257.06;5075488;28;20039;-64
2022/02/25 00:09:58;;;;;;;11.55;4.22;;;;;;;2.27;83.68;101258.47;5074900;28;20068;-64
2022/02/25 00:12:25;;;;;;;10.90;4.30;;;;;;;2.33;82.67;101250.28;5091906;28;20515;-63
2022/02/25 00:14:53;;;;;;;14.68;4.18;;;;;;;2.33;82.14;101259.91;5058369;28;20089;-63
2022/02/25 00:17:20;;;;;;;11.23;3.95;;;;;;;2.30;83.26;101266.16;5092068;28;20078;-64
2022/02/25 00:19:47;;;;;;;19.15;4.50;;;;;;;2.38;83.14;101271.78;5091760;28;20519;-63
2022/02/25 00:22:14;;;;;;;15.45;4.32;;;;;;;2.29;84.02;101277.56;5092129;28;20139;-63
2022/02/25 00:24:40;;;;;;;11.48;3.88;;;;;;;2.42;82.64;101277.69;5112534;28;20447;-63
2022/02/25 00:27:07;;;;;;;11.77;4.10;;;;;;;2.46;81.30;101274.81;5095953;28;20040;-64
2022/02/25 00:29:35;;;;;;;9.25;3.97;;;;;;;2.35;82.07;101282.47;5096477;28;20097;-63
2022/02/25 00:32:02;;;;;;;10.18;3.53;;;;;;;2.36;82.23;101284.13;5097803;28;20517;-65
2022/02/25 00:34:28;;;;;;;11.52;4.05;;;;;;;2.43;82.62;101285.47;5096864;28;20122;-65
2022/02/25 00:36:55;;;;;;;11.55;3.90;;;;;;;2.30;82.54;101294.97;5087612;28;20040;-65
2022/02/25 00:39:22;;;;;;;11.05;3.97;;;;;;;2.34;81.64;101293.00;5078601;28;20050;-64
2022/02/25 00:41:49;;;;;;;13.35;3.95;;;;;;;2.35;80.86;101295.56;5114854;28;20043;-64
2022/02/25 00:44:16;;;;;;;13.65;3.60;;;;;;;2.46;80.87;101302.78;5115584;28;20039;-64
2022/02/25 00:46:43;;;;;;;13.10;3.00;;;;;;;2.41;80.95;101310.06;5116552;28;20089;-64
2022/02/25 00:49:10;;;;;;;8.13;2.88;;;;;;;2.45;80.17;101309.78;5099032;28;20568;-64
2022/02/25 00:51:36;;;;;;;17.38;3.33;;;;;;;2.36;80.44;101315.56;5115670;28;20043;-65
2022/02/25 00:54:03;;;;;;;11.23;3.08;;;;;;;2.35;80.49;101320.88;5098888;28;20047;-64
2022/02/25 00:56:30;;;;;;;15.52;3.38;;;;;;;2.31;79.90;101317.63;5115589;28;20039;-64
2022/02/25 00:58:56;;;;;;;13.68;3.42;;;;;;;2.28;80.72;101313.38;5098882;28;20054;-65
2022/02/25 01:01:23;;;;;;;11.07;3.15;;;;;;;2.24;80.98;101324.97;5098483;28;20051;-64
2022/02/25 01:03:50;;;;;;;10.70;3.00;;;;;;;2.24;80.43;101324.97;5115407;28;20044;-64
2022/02/25 01:06:17;;;;;;;14.77;3.20;;;;;;;2.15;81.35;101325.47;5115406;28;20043;-64
2022/02/25 01:08:44;;;;;;;12.48;3.15;;;;;;;2.21;80.91;101335.59;5113933;28;20074;-64
2022/02/25 01:11:10;;;;;;;15.82;3.50;;;;;;;2.34;80.87;101335.75;5077953;28;20171;-64
2022/02/25 01:13:37;;;;;;;14.35;3.05;;;;;;;2.31;80.73;101338.56;5085600;28;20059;-64
2022/02/25 01:16:04;;;;;;;10.65;2.65;;;;;;;2.35;80.36;101345.31;5094885;28;20097;-64
2022/02/25 01:18:31;;;;;;;8.80;2.90;;;;;;;2.35;80.28;101350.53;5095985;28;20055;-64
2022/02/25 01:20:57;;;;;;;9.77;2.20;;;;;;;2.31;79.46;101349.03;5094885;28;20050;-64
2022/02/25 01:23:24;;;;;;;13.13;2.95;;;;;;;2.32;80.48;101344.63;5095886;28;20484;-64
2022/02/25 01:25:51;;;;;;;11.30;3.30;;;;;;;2.32;79.28;101347.25;5095913;28;20123;-64
2022/02/25 01:28:18;;;;;;;14.18;2.67;;;;;;;2.31;79.78;101351.66;5111741;28;20036;-64
2022/02/25 01:30:45;;;;;;;13.90;3.30;;;;;;;2.39;79.38;101343.34;5094586;28;20382;-64
2022/02/25 01:33:12;;;;;;;9.35;2.60;;;;;;;2.31;79.15;101354.28;5095199;28;20048;-64
2022/02/25 01:35:40;;;;;;;10.50;2.58;;;;;;;2.38;79.04;101360.81;5078371;28;20059;-64
2022/02/25 01:38:07;;;;;;;9.82;2.75;;;;;;;2.40;78.89;101363.34;5061127;28;20051;-64
2022/02/25 01:40:33;;;;;;;11.95;2.50;;;;;;;2.41;78.54;101362.44;5094368;28;20109;-65
2022/02/25 01:43:00;;;;;;;13.10;2.55;;;;;;;2.44;78.73;101368.34;5094574;28;20553;-64
2022/02/25 01:45:29;;;;;;;10.23;2.72;;;;;;;2.26;78.31;101372.84;5095542;28;20059;-64
2022/02/25 01:47:55;;;;;;;9.20;2.35;;;;;;;2.28;78.62;101376.22;5095382;28;20043;-64
2022/02/25 01:50:22;;;;;;;11.85;2.95;;;;;;;2.37;79.00;101360.94;5094390;28;20068;-64
2022/02/25 01:53:01;;;;;;;13.32;2.88;;;;;;;2.32;79.08;101369.03;5077402;28;20048;-65
2022/02/25 01:55:30;;;;;;;8.90;2.55;;;;;;;2.38;79.21;101362.59;5077616;28;20044;-64
2022/02/25 01:57:57;;;;;;;12.73;3.30;;;;;;;2.29;79.37;101374.44;5077598;28;20054;-65
2022/02/25 02:00:24;;;;;;;10.80;2.83;;;;;;;2.33;78.59;101369.88;5094996;28;20081;-65
2022/02/25 02:02:51;;;;;;;15.43;2.88;;;;;;;2.43;79.14;101368.44;5095432;28;20470;-65
2022/02/25 02:05:19;;;;;;;12.10;2.97;;;;;;;2.34;79.37;101369.78;5095006;28;20068;-64
2022/02/25 02:07:46;;;;;;;14.63;3.20;;;;;;;2.36;79.21;101357.44;5081735;28;20102;-65
2022/02/25 02:10:13;;;;;;;8.15;2.58;;;;;;;2.26;78.19;101364.97;5093673;28;20040;-64
2022/02/25 02:12:41;;;;;;;12.52;2.55;;;;;;;2.44;78.28;101364.91;5093917;28;20036;-64
2022/02/25 02:15:09;;;;;;;14.13;2.63;;;;;;;2.26;78.65;101358.91;5095078;28;20507;-65
2022/02/25 02:17:36;;;;;;;10.20;2.90;;;;;;;2.17;79.24;101372.50;5093946;28;20051;-64
2022/02/25 02:20:05;;;;;;;12.73;3.45;;;;;;;2.29;78.34;101366.56;5094780;28;20097;-64
2022/02/25 02:22:32;;;;;;;14.98;3.08;;;;;;;2.29;78.82;101367.44;5094907;28;20047;-64
2022/02/25 02:24:59;;;;;;;11.02;3.35;;;;;;;2.34;77.49;101363.72;5094416;28;20043;-64
2022/02/25 02:30:14;;;;;;;14.13;2.60;;;;;;;2.43;77.13;101358.78;5094418;28;20040;-64
2022/02/25 02:32:42;;;;;;;12.10;2.58;;;;;;;2.34;77.61;101363.72;5091497;28;20051;-65
2022/02/25 02:35:09;;;;;;;11.75;2.78;;;;;;;2.41;76.81;101367.69;5094381;28;20086;-64
2022/02/25 02:37:36;;;;;;;11.93;2.50;;;;;;;2.42;76.22;101357.13;5093669;28;20090;-64
2022/02/25 02:40:05;;;;;;;14.32;2.80;;;;;;;2.35;76.78;101363.63;5095227;28;21273;-64
2022/02/25 02:42:32;;;;;;;22.58;3.47;;;;;;;2.35;77.10;101363.63;5095453;28;20043;-64
2022/02/25 02:45:00;;;;;;;11.30;3.03;;;;;;;2.29;78.45;101364.81;5096014;28;20438;-64
2022/02/25 02:47:27;;;;;;;12.15;2.92;;;;;;;2.38;76.36;101360.00;5112810;28;20492;-65
2022/02/25 02:49:54;;;;;;;13.23;2.65;;;;;;;2.41;77.32;101367.69;5087250;28;20543;-64
2022/02/25 02:52:20;;;;;;;12.50;2.67;;;;;;;2.48;76.94;101363.78;5113382;28;20046;-64
2022/02/25 02:54:47;;;;;;;12.05;2.75;;;;;;;2.39;78.09;101367.75;5113340;28;20035;-65
2022/02/25 02:57:14;;;;;;;15.32;2.80;;;;;;;2.37;76.60;101371.41;5113316;28;20118;-65
2022/02/25 02:59:41;;;;;;;9.48;2.50;;;;;;;2.31;76.06;101372.59;5095479;28;20488;-64
2022/02/25 03:02:08;;;;;;;10.30;2.97;;;;;;;2.42;75.96;101369.34;5092635;28;20056;-64
2022/02/25 03:04:44;;;;;;;16.85;2.92;;;;;;;2.39;75.65;101366.94;5092798;28;20032;-64
2022/02/25 03:07:11;;;;;;;12.13;2.65;;;;;;;2.19;76.29;101370.66;5092770;28;20496;-64
2022/02/25 03:09:38;;;;;;;18.67;2.40;;;;;;;2.27;76.46;101373.69;5093876;28;20093;-64
2022/02/25 03:12:06;;;;;;;17.27;3.20;;;;;;;2.28;76.79;101370.13;5092581;28;20039;-65
2022/02/25 03:14:34;;;;;;;8.27;2.67;;;;;;;2.35;75.54;101373.25;5093953;28;20044;-64
2022/02/25 03:17:00;;;;;;;13.82;3.20;;;;;;;2.30;77.56;101379.59;5092459;28;20118;-64
2022/02/25 03:19:27;;;;;;;11.23;2.55;;;;;;;2.38;75.67;101380.94;5093897;28;20036;-64
2022/02/25 03:21:54;;;;;;;14.20;3.08;;;;;;;2.27;77.04;101392.00;5092693;28;20043;-65
2022/02/25 03:24:20;;;;;;;17.75;2.97;;;;;;;2.27;76.37;101395.47;5092436;28;20439;-64
2022/02/25 03:26:47;;;;;;;9.65;2.70;;;;;;;2.30;75.84;101392.69;5075823;28;20048;-65
2022/02/25 03:29:15;;;;;;;8.50;2.10;;;;;;;2.39;76.52;101393.94;5109370;28;20047;-65
2022/02/25 03:31:42;;;;;;;15.05;3.05;;;;;;;2.24;76.73;101393.03;5092370;28;20044;-65
2022/02/25 03:34:09;;;;;;;12.20;2.30;;;;;;;2.30;75.31;101397.91;5093459;28;20424;-65
2022/02/25 03:36:36;;;;;;;14.40;3.00;;;;;;;2.28;76.18;101394.53;5092384;28;20047;-64
2022/02/25 03:39:03;;;;;;;16.13;3.20;;;;;;;2.23;75.96;101401.78;5092245;28;20553;-64
2022/02/25 03:41:30;;;;;;;10.52;2.17;;;;;;;2.24;77.45;101400.88;5075528;28;20051;-65
2022/02/25 03:43:56;;;;;;;14.82;2.95;;;;;;;2.21;76.55;101397.59;5092063;28;20089;-64
2022/02/25 03:46:23;;;;;;;15.90;2.65;;;;;;;2.14;76.83;101393.59;5093235;28;20036;-64
2022/02/25 03:48:50;;;;;;;11.80;3.30;;;;;;;2.23;76.15;101398.34;5075373;28;20044;-65
2022/02/25 03:51:21;;;;;;;13.50;2.13;;;;;;;2.23;75.76;101396.56;5075749;28;20385;-64
2022/02/25 03:53:48;;;;;;;14.40;2.75;;;;;;;2.11;76.58;101403.31;5091885;28;20067;-65
2022/02/25 03:56:15;;;;;;;14.27;2.92;;;;;;;2.25;75.68;101402.56;5093019;28;20044;-64
2022/02/25 03:58:42;;;;;;;19.77;2.90;;;;;;;2.28;75.81;101397.16;5092063;28;20043;-64
2022/02/25 04:01:09;;;;;;;13.45;2.53;;;;;;;2.22;76.96;101405.38;5092891;28;20052;-65
2022/02/25 04:03:36;;;;;;;17.63;2.53;;;;;;;2.18;nan;101408.22;5092094;28;20408;-65
2022/02/25 04:06:03;;;;;;;12.70;2.83;;;;;;;2.22;76.53;101404.50;5093155;28;20040;-65
2022/02/25 04:08:30;;;;;;;12.20;2.90;;;;;;;2.17;76.42;101414.41;5093226;28;20044;-65
2022/02/25 04:10:57;;;;;;;19.05;2.72;;;;;;;2.24;75.39;101413.13;5074858;28;20047;-64
2022/02/25 04:13:25;;;;;;;16.00;2.20;;;;;;;2.17;76.15;101415.22;5079666;28;20412;-64
2022/02/25 04:15:52;;;;;;;16.73;2.80;;;;;;;2.14;75.93;101420.63;5091543;28;20557;-64
2022/02/25 04:18:18;;;;;;;20.83;2.88;;;;;;;2.18;75.83;101409.06;5091957;28;20055;-64
2022/02/25 04:20:45;;;;;;;14.95;2.30;;;;;;;2.12;76.32;101417.25;5092850;28;20385;-64
2022/02/25 04:23:12;;;;;;;16.70;2.70;;;;;;;2.20;75.13;101429.91;5075393;28;20457;-64
2022/02/25 04:25:39;;;;;;;14.98;2.25;;;;;;;1.95;76.14;101419.91;5091282;28;20040;-64
2022/02/25 04:28:05;;;;;;;15.52;2.80;;;;;;;2.02;75.93;101418.66;5092195;28;20044;-64
2022/02/25 04:30:32;;;;;;;15.52;2.55;;;;;;;2.03;75.89;101423.81;5091616;28;20048;-64
2022/02/25 04:32:59;;;;;;;10.35;2.08;;;;;;;1.94;76.02;101423.47;5091693;28;20446;-65
2022/02/25 04:35:27;;;;;;;8.65;1.95;;;;;;;1.92;76.37;101421.78;5092699;28;20044;-64
2022/02/25 04:37:54;;;;;;;17.55;2.75;;;;;;;1.94;76.77;101419.06;5074998;28;20044;-64
2022/02/25 04:40:21;;;;;;;12.35;2.40;;;;;;;2.02;75.98;101414.28;5071373;28;20045;-65
2022/02/25 04:42:48;;;;;;;20.25;2.60;;;;;;;1.96;76.16;101417.22;5103724;28;20051;-64
2022/02/25 04:45:15;;;;;;;11.68;2.45;;;;;;;1.98;76.63;101412.75;5111767;28;20035;-64
2022/02/25 04:47:43;;;;;;;11.52;2.28;;;;;;;2.07;75.80;101414.91;5113076;28;20039;-64
2022/02/25 04:50:12;;;;;;;19.20;2.45;;;;;;;1.97;76.46;101408.44;5112965;28;20411;-64
2022/02/25 04:52:40;;;;;;;13.20;2.70;;;;;;;2.01;76.77;101401.28;5078148;28;20047;-65
2022/02/25 04:55:08;;;;;;;21.52;3.30;;;;;;;2.08;76.20;101400.03;5112037;28;20044;-64
2022/02/25 04:57:37;;;;;;;14.63;2.47;;;;;;;2.08;76.00;101393.00;5128869;28;20523;-64
2022/02/25 05:00:10;;;;;;;19.17;3.10;;;;;;;2.00;76.15;101395.22;5112001;28;20040;-64
2022/02/25 05:02:40;;;;;;;14.15;2.20;;;;;;;2.05;75.72;101398.41;5112553;28;20051;-65
2022/02/25 05:05:07;;;;;;;11.82;2.38;;;;;;;1.99;76.99;101411.81;5111681;28;20117;-65
2022/02/25 05:07:34;;;;;;;10.48;2.58;;;;;;;2.03;76.73;101409.91;5112769;28;20050;-64
2022/02/25 05:10:02;;;;;;;18.15;2.60;;;;;;;2.01;75.97;101415.22;5068962;28;20044;-64
2022/02/25 05:12:29;;;;;;;17.35;3.10;;;;;;;2.00;76.82;101412.66;5095842;28;20044;-64
2022/02/25 05:20:29;;;;;;;16.17;2.72;;;;;;;2.19;75.61;101413.38;5096063;28;20043;-64
2022/02/25 05:22:59;;;;;;;18.67;3.10;;;;;;;2.16;76.13;101413.53;5095934;28;20089;-65
2022/02/25 05:25:28;;;;;;;12.52;3.05;;;;;;;2.08;76.54;101413.94;5094793;28;20078;-64
2022/02/25 05:27:56;;;;;;;14.48;2.38;;;;;;;2.12;76.54;101412.00;5095722;28;20093;-65
2022/02/25 05:30:25;;;;;;;27.02;3.40;;;;;;;2.19;75.49;101409.91;5095743;28;20044;-65
2022/02/25 05:32:51;;;;;;;15.90;2.97;;;;;;;2.08;76.77;101413.13;5095665;28;20048;-64
2022/02/25 05:35:19;;;;;;;21.80;2.65;;;;;;;2.22;75.96;101412.34;5078099;28;20044;-64
2022/02/25 05:37:49;;;;;;;14.38;2.38;;;;;;;2.15;76.75;101411.00;5094568;28;20040;-65
2022/02/25 05:40:18;;;;;;;11.48;2.10;;;;;;;2.24;76.05;101413.13;5094281;28;20097;-64
2022/02/25 05:42:45;;;;;;;12.13;2.80;;;;;;;2.23;76.18;101417.50;5095565;28;20710;-64
2022/02/25 05:45:14;;;;;;;15.02;2.47;;;;;;;2.18;76.04;101416.91;5094171;28;20059;-64
2022/02/25 05:47:42;;;;;;;16.83;2.53;;;;;;;2.16;76.39;101416.16;5077612;28;20052;-64
2022/02/25 05:50:13;;;;;;;14.68;3.22;;;;;;;2.21;75.94;101416.75;5094344;28;20048;-64
2022/02/25 05:52:42;;;;;;;20.20;3.20;;;;;;;2.22;75.39;101413.22;5077711;28;20048;-64
2022/02/25 05:55:11;;;;;;;15.25;2.53;;;;;;;2.20;76.63;101414.22;5093941;28;20039;-65
2022/02/25 05:57:39;;;;;;;15.73;2.80;;;;;;;2.24;75.83;101416.59;5095393;28;20047;-64
2022/02/25 06:00:08;;;;;;;21.42;2.92;;;;;;;2.28;75.75;101414.66;5094030;28;20051;-64
2022/02/25 06:02:44;;;;;;;18.95;2.65;;;;;;;2.27;76.32;101421.66;5078156;28;20052;-65
2022/02/25 06:05:13;;;;;;;21.55;3.13;;;;;;;2.27;75.03;101424.28;5107929;28;20032;-64
2022/02/25 06:07:41;;;;;;;14.85;2.40;;;;;;;2.30;75.22;101423.25;5077193;28;20048;-65
2022/02/25 06:10:09;;;;;;;16.10;2.47;;;;;;;2.19;75.32;101429.09;5076673;28;20422;-65
2022/02/25 06:12:38;;;;;;;13.68;2.60;;;;;;;2.27;75.34;101429.53;5094741;28;20500;-64
2022/02/25 06:15:07;;;;;;;17.45;2.63;;;;;;;2.20;75.28;101438.63;5095163;28;20044;-65
2022/02/25 06:17:43;;;;;;;20.65;2.75;;;;;;;2.20;75.60;101446.50;5076810;28;20036;-64
2022/02/25 06:20:11;;;;;;;14.95;2.45;;;;;;;2.23;76.70;101440.22;5093674;28;20048;-64
2022/02/25 06:22:38;;;;;;;17.15;3.10;;;;;;;2.23;76.34;101437.63;5093749;28;20048;-65
2022/02/25 06:25:06;;;;;;;10.45;2.40;;;;;;;2.24;76.53;101442.78;5093268;28;20443;-63
2022/02/25 06:27:33;;;;;;;18.02;2.50;;;;;;;2.34;74.97;101444.88;5093483;28;20048;-64
2022/02/25 06:30:02;;;;;;;15.98;2.28;;;;;;;2.40;74.83;101445.41;5076862;28;20500;-64
2022/02/25 06:32:28;;;;;;;15.43;2.38;;;;;;;2.38;74.93;101442.00;5060022;28;20499;-64
2022/02/25 06:34:55;;;;;;;17.58;3.75;;;;;;;2.30;75.98;101446.81;5060316;28;20419;-64
2022/02/25 06:37:22;;;;;;;17.23;2.72;;;;;;;2.22;75.90;101454.25;5076403;28;20113;-64
2022/02/25 06:39:50;;;;;;;10.25;1.90;;;;;;;2.34;75.58;101440.47;5093403;28;20040;-64
2022/02/25 06:42:17;;;;;;;19.63;2.47;;;;;;;2.40;74.95;101449.78;5111035;27;20511;-63
2022/02/25 06:44:44;;;;;;;16.38;2.78;;;;;;;2.38;75.59;101449.03;5096562;28;20040;-63
2022/02/25 06:47:10;;;;;;;20.65;2.95;;;;;;;2.52;75.05;101453.50;5095748;28;20043;-65
2022/02/25 06:49:39;;;;;;;15.18;2.45;;;;;;;2.58;75.67;101455.78;5096053;28;20045;-64
2022/02/25 06:52:07;;;;;;;15.77;2.55;;;;;;;2.63;74.45;101456.38;5080317;28;20496;-64
2022/02/25 06:54:34;;;;;;;14.52;2.60;;;;;;;2.65;74.73;101467.63;5114404;28;20035;-64
2022/02/25 06:57:01;;;;;;;16.10;2.42;;;;;;;2.71;73.92;101466.44;5096714;28;20058;-64
2022/02/25 06:59:28;;;;;;;20.58;2.83;;;;;;;2.72;74.60;101460.28;5114004;28;20039;-64
2022/02/25 07:01:55;;;;;;;16.73;2.65;;;;;;;2.73;74.85;101464.56;5113564;28;20519;-64
2022/02/25 07:04:22;;;;;;;13.80;2.55;;;;;;;2.72;74.04;101463.72;5114083;28;20047;-64
2022/02/25 07:06:48;;;;;;;16.10;2.72;;;;;;;2.72;74.58;101463.72;5105282;28;20066;-64
2022/02/25 07:09:15;;;;;;;18.02;2.50;;;;;;;2.68;74.10;101462.22;5093503;28;20561;-64
2022/02/25 07:11:42;;;;;;;16.45;2.72;;;;;;;2.77;74.17;101473.97;5093608;28;20530;-64
2022/02/25 07:14:09;;;;;;;23.17;2.70;;;;;;;2.80;73.83;101469.41;5093547;28;20040;-64
2022/02/25 07:16:36;;;;;;;10.77;2.15;;;;;;;2.79;73.63;101474.72;5109166;28;20438;-64
2022/02/25 07:19:03;;;;;;;19.05;2.60;;;;;;;2.87;74.55;101473.38;5075486;28;20067;-64
2022/02/25 07:21:30;;;;;;;18.25;2.85;;;;;;;2.98;73.68;101471.88;5109283;28;20072;-64
2022/02/25 07:23:56;;;;;;;10.35;1.88;;;;;;;2.91;73.33;101479.28;5075309;28;20052;-64
2022/02/25 07:26:23;;;;;;;22.20;2.95;;;;;;;3.01;73.25;101472.56;5092397;28;20055;-64
2022/02/25 07:28:50;;;;;;;20.08;3.35;;;;;;;3.03;74.08;101475.09;5082848;28;20075;-64
2022/02/25 07:31:17;;;;;;;14.07;2.20;;;;;;;3.07;73.84;101479.22;5091633;28;20064;-64
2022/02/25 07:33:44;;;;;;;17.67;2.75;;;;;;;3.08;73.26;101470.44;5092074;28;20113;-64
2022/02/25 07:36:11;;;;;;;19.45;2.78;;;;;;;3.22;74.54;101480.13;5091950;28;20097;-64
2022/02/25 07:38:37;;;;;;;10.68;2.60;;;;;;;3.40;74.05;101478.22;5092284;28;20048;-64
2022/02/25 07:41:06;;;;;;;19.58;2.33;;;;;;;3.34;73.50;101484.66;5092025;28;20504;-64
2022/02/25 07:43:33;;;;;;;15.07;2.58;;;;;;;3.21;73.08;101481.91;5091930;28;20450;-64
2022/02/25 07:45:59;;;;;;;13.15;2.70;;;;;;;3.20;73.15;101484.63;5093267;28;20545;-64
2022/02/25 07:48:26;;;;;;;16.38;3.28;;;;;;;3.13;74.19;101486.75;5092855;28;20047;-64
2022/02/25 07:50:53;;;;;;;14.80;2.53;;;;;;;3.19;75.01;101485.56;5092192;28;20613;-64
2022/02/25 07:53:20;;;;;;;9.52;2.33;;;;;;;3.20;74.69;101495.09;5093156;28;20446;-64
2022/02/25 07:55:47;;;;;;;14.60;2.70;;;;;;;3.09;75.91;101493.09;5091744;28;20055;-64
2022/02/25 07:58:14;;;;;;;13.77;2.80;;;;;;;3.03;77.26;101490.84;5092013;28;20039;-64
2022/02/25 08:00:41;;;;;;;15.93;2.47;;;;;;;3.06;77.81;101491.50;5091716;28;20047;-64
2022/02/25 08:03:08;;;;;;;14.52;2.45;;;;;;;2.98;77.13;101495.47;5062908;28;20054;-64
2022/02/25 08:05:35;;;;;;;19.05;2.95;;;;;;;3.12;77.80;101492.09;5092869;28;20400;-64
2022/02/25 08:08:04;;;;;;;24.35;2.75;;;;;;;3.14;76.79;101504.16;5075398;28;20047;-64
2022/02/25 08:10:33;;;;;;;18.75;3.30;;;;;;;3.16;76.64;101493.59;5091288;28;20062;-64
2022/02/25 08:13:01;;;;;;;17.30;3.10;;;;;;;3.17;77.01;101503.16;5091783;28;20040;-64
2022/02/25 08:15:33;;;;;;;21.15;3.08;;;;;;;3.30;77.15;101514.63;5091730;28;20033;-64
2022/02/25 08:18:00;;;;;;;12.35;2.97;;;;;;;3.40;76.23;101504.44;5091768;28;20051;-64
2022/02/25 08:20:27;;;;;;;16.85;2.70;;;;;;;3.51;77.32;101515.19;5108627;28;20044;-64
2022/02/25 08:22:57;;;;;;;19.20;3.08;;;;;;;3.56;75.62;101520.16;5108668;28;20404;-64
2022/02/25 08:25:24;;;;;;;15.98;3.45;;;;;;;3.55;75.91;101535.06;5091458;28;20135;-64
2022/02/25 08:27:51;;;;;;;25.73;3.60;;;;;;;3.48;76.45;101530.25;5075081;28;20071;-64
2022/02/25 08:30:17;;;;;;;14.10;2.63;;;;;;;3.43;77.33;101538.38;5075154;28;20040;-64
2022/02/25 08:32:47;;;;;;;18.25;3.03;;;;;;;3.43;77.73;101535.75;5108374;28;20089;-63
2022/02/25 08:35:16;;;;;;;18.05;3.95;;;;;;;3.39;77.88;101537.72;5074917;28;20515;-64
2022/02/25 08:37:44;;;;;;;11.88;2.58;;;;;;;3.29;77.67;101540.94;5075102;28;20400;-64
2022/02/25 08:40:13;;;;;;;26.80;3.17;;;;;;;3.33;78.82;101538.06;5091284;28;20115;-64
2022/02/25 08:42:40;;;;;;;13.98;3.30;;;;;;;3.34;78.91;101544.16;5092121;28;20056;-64
2022/02/25 08:45:09;;;;;;;10.48;2.75;;;;;;;3.37;78.59;101570.22;5112989;28;20032;-64
2022/02/25 08:47:37;;;;;;;20.75;5.07;;;;;;;3.38;79.60;101561.41;5080003;28;20044;-64
2022/02/25 08:50:04;;;;;;;19.42;4.32;;;;;;;3.39;80.56;101563.09;5095515;28;20532;-63
2022/02/25 08:52:31;;;;;;;22.05;2.95;;;;;;;3.32;79.96;101567.00;5096565;28;20082;-63
2022/02/25 08:54:58;;;;;;;13.25;2.40;;;;;;;3.34;79.10;101584.34;5095216;28;20094;-63
2022/02/25 08:57:25;;;;;;;22.25;3.15;;;;;;;3.35;79.41;101578.16;5096295;28;20111;-63
2022/02/25 08:59:51;;;;;;;18.67;3.60;;;;;;;3.35;80.11;101567.69;5095009;28;20044;-63
2022/02/25 09:02:18;;;;;;;17.73;2.95;;;;;;;3.40;79.78;101575.25;5094942;28;20055;-64
2022/02/25 09:04:47;;;;;;;12.02;2.72;;;;;;;3.49;79.07;101569.50;5073760;28;20135;-63
2022/02/25 09:07:13;;;;;;;14.65;2.97;;;;;;;3.41;79.26;101576.97;5091416;28;20775;-64
2022/02/25 09:09:42;;;;;;;16.38;2.95;;;;;;;3.50;78.66;101596.59;5096487;28;20097;-64
2022/02/25 09:12:10;;;;;;;20.65;2.92;;;;;;;3.54;79.05;101592.84;5077578;28;20488;-65
2022/02/25 09:14:37;;;;;;;14.45;2.80;;;;;;;3.52;78.44;101581.59;5076794;28;20101;-65
2022/02/25 09:17:04;;;;;;;23.27;3.60;;;;;;;3.63;78.88;101587.06;5092599;28;20044;-65
2022/02/25 09:19:30;;;;;;;14.65;3.15;;;;;;;3.70;78.21;101598.09;5092715;28;20032;-64
2022/02/25 09:21:57;;;;;;;18.58;3.97;;;;;;;3.81;77.78;101598.28;5075405;28;20044;-64
2022/02/25 09:24:24;;;;;;;17.48;3.15;;;;;;;3.84;77.89;101592.88;5093831;28;20448;-64
2022/02/25 09:26:50;;;;;;;24.63;3.42;;;;;;;3.97;78.08;101595.63;5093034;28;20063;-63
2022/02/25 09:29:17;;;;;;;15.00;3.00;;;;;;;3.89;77.54;101606.56;5095437;28;20051;-65
2022/02/25 09:31:44;;;;;;;16.52;3.65;;;;;;;4.06;77.96;101609.97;5093152;28;20040;-65
2022/02/25 09:34:11;;;;;;;20.85;3.63;;;;;;;4.15;77.36;101605.03;5094590;28;20040;-65
2022/02/25 09:36:38;;;;;;;15.18;2.83;;;;;;;4.21;76.94;101604.66;5095018;28;20511;-65
2022/02/25 09:39:05;;;;;;;22.90;3.45;;;;;;;4.14;77.64;101611.22;5089688;28;20503;-65
2022/02/25 09:41:32;;;;;;;15.90;3.00;;;;;;;4.27;77.10;101616.56;5091934;28;20044;-65
2022/02/25 09:44:01;;;;;;;15.38;3.20;;;;;;;4.25;76.68;101612.38;5093471;28;20048;-65
2022/02/25 09:46:28;;;;;;;12.40;2.55;;;;;;;4.20;77.32;101607.38;5088767;28;20484;-65
2022/02/25 09:48:54;;;;;;;18.75;3.40;;;;;;;4.34;77.20;101619.69;5089497;28;20548;-63
2022/02/25 09:51:21;;;;;;;24.02;3.20;;;;;;;4.41;76.57;101619.22;5092378;28;20040;-63
2022/02/25 09:53:48;;;;;;;19.40;3.80;;;;;;;4.38;76.35;101635.19;5091245;28;20083;-64
2022/02/25 09:56:15;;;;;;;21.48;4.03;;;;;;;4.48;76.31;101634.63;5059893;28;20070;-64
2022/02/25 09:58:42;;;;;;;14.85;3.83;;;;;;;4.38;76.27;101627.31;5090996;28;20048;-64
2022/02/25 10:01:11;;;;;;;18.58;4.10;;;;;;;4.41;76.08;101647.28;5093101;28;20063;-64
2022/02/25 10:03:39;;;;;;;19.13;4.18;;;;;;;4.46;76.31;101642.59;5092843;28;20051;-64
2022/02/25 10:06:08;;;;;;;16.60;3.08;;;;;;;4.57;76.12;101639.34;5074601;28;20464;-64
2022/02/25 10:08:36;;;;;;;14.02;3.17;;;;;;;4.73;75.16;101660.25;5076700;28;20408;-64
2022/02/25 10:11:04;;;;;;;22.05;4.45;;;;;;;4.78;75.37;101650.31;5109385;28;20043;-64
2022/02/25 10:13:33;;;;;;;14.75;3.38;;;;;;;4.83;74.86;101653.50;5092545;28;20094;-64
2022/02/25 10:16:14;;;;;;;19.05;3.88;;;;;;;4.86;75.04;101662.97;5079939;28;20040;-64
2022/02/25 10:18:43;;;;;;;21.05;3.97;;;;;;;4.91;74.87;101659.16;5094359;28;20582;-64
2022/02/25 10:21:13;;;;;;;21.38;3.92;;;;;;;4.89;75.21;101668.03;5089109;28;20036;-65
2022/02/25 10:23:43;;;;;;;23.42;4.38;;;;;;;4.93;74.87;101669.53;5092419;28;20040;-64
2022/02/25 10:28:53;;;;;;;30.20;5.55;;;;;;;4.97;75.15;101682.41;5112632;27;20407;-63
2022/02/25 10:31:32;;;;;;;17.25;2.75;;;;;;;5.07;74.26;101684.47;5092912;28;20083;-64
2022/02/25 10:34:13;;;;;;;17.48;3.92;;;;;;;5.29;74.47;101690.06;5134186;27;20040;-63
2022/02/25 10:36:45;;;;;;;19.13;3.60;;;;;;;5.20;73.57;101693.28;5130658;27;20054;-63
2022/02/25 10:39:22;;;;;;;16.63;4.15;;;;;;;5.38;73.61;101689.53;5125337;27;20056;-64
2022/02/25 10:42:12;;;;;;;30.95;5.07;;;;;;;5.45;73.43;101697.03;5118233;27;20136;-63
2022/02/25 10:44:47;;;;;;;23.92;4.15;;;;;;;5.57;72.70;101696.25;5133389;27;20047;-63
2022/02/25 10:47:19;;;;;;;20.95;3.78;;;;;;;5.76;72.13;101699.34;5143939;27;20077;-63
2022/02/25 10:49:49;;;;;;;18.85;3.58;;;;;;;6.31;70.83;101704.59;5131653;27;20039;-63
2022/02/25 10:55:03;;;;;;;19.88;3.83;;;;;;;6.76;67.79;101712.97;5129977;27;20403;-65
2022/02/25 10:57:34;;;;;;;28.88;4.40;;;;;;;7.14;68.02;101706.00;5128594;27;20511;-64
2022/02/25 11:00:06;;;;;;;19.10;3.33;;;;;;;7.43;65.10;101712.69;5097066;28;20438;-64
2022/02/25 11:02:36;;;;;;;20.30;4.85;;;;;;;7.07;67.22;101711.69;5132295;27;20044;-64
2022/02/25 11:05:15;;;;;;;17.92;3.55;;;;;;;6.54;68.67;101709.16;5112924;28;20506;-64
2022/02/25 11:07:46;;;;;;;20.73;4.05;;;;;;;6.55;69.06;101702.13;5122869;28;20036;-64
2022/02/25 11:10:15;;;;;;;18.85;3.40;;;;;;;6.22;69.84;101706.09;5137347;27;20051;-64
2022/02/25 11:12:44;;;;;;;28.52;4.28;;;;;;;5.96;70.25;101716.53;5105538;28;20072;-64
2022/02/25 11:15:15;;;;;;;25.13;4.05;;;;;;;5.88;71.87;101707.44;5096151;28;20392;-64
2022/02/25 11:17:45;;;;;;;21.27;4.22;;;;;;;5.85;72.35;101705.00;5104939;27;20474;-64
2022/02/25 11:20:19;;;;;;;22.65;3.40;;;;;;;6.00;71.80;101695.25;5124707;27;20039;-64
2022/02/25 11:22:50;;;;;;;22.20;5.45;;;;;;;7.09;68.18;101691.34;5123520;28;20035;-64
2022/02/25 11:25:17;;;;;;;27.40;4.15;;;;;;;7.64;65.77;101678.63;5081631;28;20049;-64
2022/02/25 11:27:45;;;;;;;18.27;3.63;;;;;;;8.51;61.54;101685.44;5110394;28;20043;-64
2022/02/25 11:30:20;;;;;;;19.65;4.10;;;;;;;8.64;61.35;101686.16;5098745;28;20040;-65
2022/02/25 11:33:05;;;;;;;19.30;3.72;;;;;;;10.48;56.08;101696.13;5105665;28;20039;-65
2022/02/25 11:35:34;;;;;;;26.92;4.18;;;;;;;11.29;54.51;101699.69;5101191;28;20070;-65
2022/02/25 11:38:05;;;;;;;18.08;3.55;;;;;;;12.34;51.58;101706.25;5108811;28;20411;-64
2022/02/25 11:40:53;;;;;;;24.63;4.07;;;;;;;12.73;51.04;101710.66;5104818;28;20074;-64
2022/02/25 11:54:40;;;;;;;21.70;4.38;;;;;;;9.20;59.64;101691.50;5130941;27;20350;-64